Inicio / NACIONALES / TN / Clase 2 / BLOTTA MARCÓ EL CAMINO EN LA APERTURA DE LA ACCIÓN EN LA RIOJA
Manfrey

BLOTTA MARCÓ EL CAMINO EN LA APERTURA DE LA ACCIÓN EN LA RIOJA

Renzo Blotta comenzó a paso firme su primera incursión en el «Autódromo Ciudad de La Rioja», marcando el primer tiempo en el primer entrenamiento de la Clase 2 del Turismo Nacional, que disputa este fin de semana la cuarta fecha del año.

Sobre los 3.276 metros de extensión, el piloto comodorense marcó la primera referencia del fin de semana al establecer 1m21s115, superando por tres décimas a Christian Abdala y por cuatro décimas a Tomás Bergallo, nuevamente iniciando de manera destacada el fin de semana de actividad.

Tiempos:

Puesto Piloto Marca Vtas. Tiempo Dif.
1 15 RENZO BLOTTA TOYOTA ETIOS 12 1:21.115
2 18 CHRISTIAN ABDALA TOYOTA ETIOS 12 1:21.433 0.318
3 157 TOMAS BERGALLO FIAT ARGO 15 1:21.548 0.433
4 12 FACUNDO LEANEZ TOYOTA ETIOS 15 1:21.637 0.522
5 14 FERNANDO GOMEZ FREDES TOYOTA ETIOS 15 1:21.691 0.576
6 114 MATIAS SIGNORELLI NISSAN MARCH 17 1:21.931 0.816
7 61 ALEX CONCI FIESTA KINETIC 16 1:21.965 0.850
8 7 LUCAS YEROBI FIESTA KINETIC 15 1:22.004 0.889
9 19 MARCOS FERNANDEZ NISSAN MARCH 17 1:22.007 0.892
10 29 NAZARENO BEGUIRISTAIN TOYOTA ETIOS 12 1:22.104 0.989
11 25 MARCO VERONESI TOYOTA ETIOS 13 1:22.202 1.087
12 150 JUAN MARTIN ELUCHANS TOYOTA ETIOS 12 1:22.215 1.100
13 54 FACUNDO ROTONDO TOYOTA ETIOS 13 1:22.258 1.143
14 28 SANDRO ABDALA NISSAN MARCH 15 1:22.351 1.236
15 38 MATIAS CRAVERO FIESTA KINETIC 16 1:22.393 1.278
16 45 JOSE LUIS ARRATE TOYOTA ETIOS 10 1:22.396 1.281
17 155 FRANCISCO CALO FIESTA KINETIC 16 1:22.469 1.354
18 8 FACUNDO BUSTOS VW TREND 17 1:22.562 1.447
19 11 MAXIMILIANO BESTANI TOYOTA ETIOS 17 1:22.588 1.473
20 151 BAUTISTA BUSTOS TOYOTA ETIOS 14 1:22.711 1.596
21 16 SEBASTIAN PEREZ TOYOTA ETIOS 13 1:22.734 1.619
22 144 THOMAS POZNER TOYOTA ETIOS 13 1:22.819 1.704
23 24 MARCELO GUEVARA NISSAN MARCH 16 1:23.017 1.902
24 116 ALEJANDRO TORRISI NISSAN MARCH 15 1:23.019 1.904
25 4 MIGUEL CIAURRO VW TREND 14 1:23.038 1.923
26 22 SERGIO FERNANDEZ NISSAN MARCH 14 1:23.052 1.937
27 3 JUAN I. CANELA VW TREND 11 1:23.076 1.961
28 136 MARTIN BLASIG NISSAN MARCH 14 1:23.096 1.981
29 9 ALEJO BORGIANI TOYOTA ETIOS 14 1:23.113 1.998
30 66 JOAQUIN TORRES FIAT ARGO 14 1:23.469 2.354
31 32 GABRIEL SCORDIA FIESTA KINETIC 14 1:23.476 2.361
32 23 DAMIAN KIRSTEIN PEUGEOT 208 17 1:23.559 2.444
33 21 DIEGO LEANEZ TOYOTA ETIOS 12 1:24.292 3.177
34 72 GUILLERMO TILLITU VW TREND 14 1:24.961 3.846
35 88 PABLO VILLABERDE FIESTA KINETIC 15 1:25.291 4.176
36 115 BRUNO MIGLIO NISSAN MARCH 16 1:25.817 4.702
37 99 JUAN DAMIANI TOYOTA ETIOS 14 1:26.846 5.731
38 91 INAKI BEITIA TOYOTA ETIOS 2 1:33.790 12.675

 

 

 

 

 

 

 

 

Fuente y foto: apat.org.ar

JEA

Te puede interesar

¡SEGUNDO DOMINGO VICTORIOSO PARA CHAPUR!

Facundo Chapur cambió la racha y, tras varios abandonos, al triunfo del domingo pasado en …